Time;durP1;ratioP1;P1;durP2;ratioP2;P2;SDS_P1;SDS_P2;PMS_P1;PMS_P2;Temp;Humidity;BMP_temperature;BMP_pressure;BME280_temperature;BME280_humidity;BME280_pressure;Samples;Min_cycle;Max_cycle;Signal;HPM_P1;HPM_P2
2023/08/06 00:00:02;;;;;;;11.90;7.80;;;;;;;24.63;87.23;99877.75;84620;281;24061;-62
2023/08/06 00:02:09;;;;;;;16.00;9.00;;;;;;;24.59;87.31;99872.41;84356;282;22652;-64
2023/08/06 00:04:11;;;;;;;11.40;8.40;;;;;;;24.56;87.55;99869.77;84115;282;138394;-63
2023/08/06 00:06:12;;;;;;;13.40;7.30;;;;;;;24.54;87.61;99870.90;84202;282;24817;-59
2023/08/06 00:08:14;;;;;;;12.20;9.00;;;;;;;24.52;87.60;99870.81;84105;282;136960;-69
2023/08/06 00:10:17;;;;;;;20.90;10.30;;;;;;;24.54;87.54;99867.19;84206;281;22548;-62
2023/08/06 00:12:19;;;;;;;8.20;7.50;;;;;;;24.53;87.51;99865.02;84121;281;137199;-61
2023/08/06 00:14:20;;;;;;;8.00;6.70;;;;;;;24.50;87.48;99866.57;84309;281;22570;-63
2023/08/06 00:16:22;;;;;;;11.70;7.70;;;;;;;24.43;87.97;99868.02;84259;281;136749;-63
2023/08/06 00:18:24;;;;;;;8.00;7.20;;;;;;;24.41;88.14;99862.10;84244;282;22546;-62
2023/08/06 00:20:26;;;;;;;19.90;9.40;;;;;;;24.38;88.50;99859.64;84152;281;137944;-70
2023/08/06 00:22:27;;;;;;;9.30;7.60;;;;;;;24.36;88.63;99857.91;84289;281;22564;-62
2023/08/06 00:24:29;;;;;;;14.70;9.90;;;;;;;24.34;88.70;99853.75;84290;281;137776;-61
2023/08/06 00:26:31;;;;;;;13.00;8.80;;;;;;;24.28;89.04;99860.13;84309;281;24099;-64
2023/08/06 00:28:33;;;;;;;14.00;8.20;;;;;;;24.22;89.53;99859.45;84161;281;136683;-62
2023/08/06 00:30:35;;;;;;;10.60;8.20;;;;;;;24.18;90.09;99860.27;84014;284;22687;-67
2023/08/06 00:32:37;;;;;;;10.70;8.30;;;;;;;24.15;90.17;99856.77;84152;281;136705;-64
2023/08/06 00:34:38;;;;;;;17.90;9.30;;;;;;;24.09;90.50;99854.86;84179;282;25156;-64
2023/08/06 00:36:40;;;;;;;17.30;10.00;;;;;;;24.03;91.38;99854.28;84132;281;136547;-63
2023/08/06 00:38:42;;;;;;;8.60;7.80;;;;;;;23.99;91.51;99853.61;84156;282;25177;-63
2023/08/06 00:40:44;;;;;;;21.30;8.70;;;;;;;23.98;91.56;99855.38;84073;282;136432;-65
2023/08/06 00:42:46;;;;;;;14.50;7.90;;;;;;;23.99;91.38;99855.92;84190;282;25213;-63
2023/08/06 00:44:48;;;;;;;12.90;9.20;;;;;;;24.02;91.29;99852.83;84294;282;136753;-62
2023/08/06 00:46:50;;;;;;;16.80;9.50;;;;;;;24.02;91.31;99854.52;84252;282;24079;-61
2023/08/06 00:48:52;;;;;;;8.70;7.40;;;;;;;24.02;91.40;99847.98;84085;283;136811;-66
2023/08/06 00:50:55;;;;;;;12.60;7.40;;;;;;;24.04;91.29;99845.89;84141;283;24139;-69
2023/08/06 00:52:57;;;;;;;13.10;8.60;;;;;;;24.04;91.04;99848.62;84074;282;137088;-73
2023/08/06 00:54:59;;;;;;;9.70;8.00;;;;;;;24.04;91.03;99846.92;84209;283;25355;-62
2023/08/06 00:57:02;;;;;;;9.00;8.20;;;;;;;24.09;90.68;99847.36;84098;281;136730;-61
2023/08/06 00:59:05;;;;;;;8.00;7.40;;;;;;;24.10;90.45;99843.48;84281;281;22663;-62
2023/08/06 01:01:07;;;;;;;8.40;7.70;;;;;;;24.03;90.74;99842.30;84461;281;136618;-62
2023/08/06 01:03:09;;;;;;;7.20;6.80;;;;;;;24.01;90.91;99840.30;84097;285;25220;-62
2023/08/06 01:05:11;;;;;;;15.80;8.00;;;;;;;23.95;91.18;99841.84;84121;282;136862;-65
2023/08/06 01:07:27;;;;;;;9.50;8.10;;;;;;;23.89;91.64;99845.50;84248;271;22567;-65
2023/08/06 01:09:44;;;;;;;11.30;7.90;;;;;;;23.85;91.70;99843.16;84103;282;136798;-62
2023/08/06 01:12:04;;;;;;;8.70;7.20;;;;;;;23.82;92.02;99842.48;84060;283;22568;-62
2023/08/06 01:14:15;;;;;;;10.40;8.50;;;;;;;23.77;92.28;99841.58;84536;281;22558;-62
2023/08/06 01:16:18;;;;;;;7.80;7.20;;;;;;;23.71;92.59;99838.44;84291;280;138382;-61
2023/08/06 01:18:20;;;;;;;8.00;7.30;;;;;;;23.66;93.12;99842.30;84351;282;25135;-63
2023/08/06 01:20:28;;;;;;;9.70;6.80;;;;;;;23.62;93.29;99834.66;83968;282;137260;-63
2023/08/06 01:22:30;;;;;;;9.60;7.90;;;;;;;23.57;93.77;99834.81;84412;283;22547;-65
2023/08/06 01:24:32;;;;;;;8.60;7.70;;;;;;;23.55;94.01;99839.58;84139;281;137033;-64
2023/08/06 01:26:42;;;;;;;7.50;6.80;;;;;;;23.54;94.03;99831.96;84296;282;25269;-75
2023/08/06 01:29:10;;;;;;;8.20;7.60;;;;;;;23.53;94.10;99836.42;84230;282;136507;-62
2023/08/06 01:31:30;;;;;;;7.60;6.90;;;;;;;23.52;94.24;99833.39;84365;281;25218;-59
2023/08/06 01:33:34;;;;;;;8.30;6.80;;;;;;;23.49;94.22;99829.84;84395;282;136879;-64
2023/08/06 01:35:38;;;;;;;7.90;7.40;;;;;;;23.45;94.69;99831.13;84530;282;22644;-59
2023/08/06 01:37:41;;;;;;;9.10;7.30;;;;;;;23.38;95.07;99826.63;84374;281;137134;-61
2023/08/06 01:39:43;;;;;;;8.00;7.30;;;;;;;23.31;95.63;99831.36;84460;278;23719;-62
2023/08/06 01:41:45;;;;;;;7.30;6.50;;;;;;;23.22;96.37;99824.65;84177;282;136928;-69
2023/08/06 01:43:47;;;;;;;9.40;8.00;;;;;;;23.18;96.77;99826.04;84374;282;25251;-68
2023/08/06 01:45:49;;;;;;;7.90;7.20;;;;;;;23.13;97.30;99823.67;84361;282;137060;-69
2023/08/06 01:47:51;;;;;;;9.10;7.40;;;;;;;23.12;97.47;99823.04;84327;275;25252;-63
2023/08/06 01:49:52;;;;;;;8.10;7.40;;;;;;;23.02;97.57;99813.48;84213;283;137179;-64
2023/08/06 01:51:54;;;;;;;8.30;7.70;;;;;;;23.06;97.72;99817.92;84199;282;25138;-61
2023/08/06 01:53:56;;;;;;;8.60;7.80;;;;;;;23.05;97.98;99817.71;84152;282;136870;-78
2023/08/06 01:55:58;;;;;;;7.70;7.10;;;;;;;23.03;97.78;99812.98;84297;282;22542;-65
2023/08/06 01:58:00;;;;;;;10.20;7.20;;;;;;;23.03;97.86;99813.59;84379;282;138235;-64
2023/08/06 02:00:03;;;;;;;7.80;7.10;;;;;;;23.03;97.92;99810.96;84374;282;22644;-63
2023/08/06 02:02:13;;;;;;;7.80;7.20;;;;;;;23.02;97.83;99806.94;84304;282;22569;-64
2023/08/06 02:04:15;;;;;;;9.10;7.30;;;;;;;23.01;97.90;99809.45;84212;283;137749;-62
2023/08/06 02:06:17;;;;;;;7.70;7.10;;;;;;;23.01;97.90;99807.87;84332;281;22558;-63
2023/08/06 02:08:19;;;;;;;8.20;7.40;;;;;;;22.97;98.20;99808.34;84280;281;137312;-63
2023/08/06 02:10:21;;;;;;;8.20;7.50;;;;;;;22.93;98.13;99808.69;84279;281;22569;-69
2023/08/06 02:12:23;;;;;;;7.90;7.30;;;;;;;22.90;98.41;99808.49;84132;282;137019;-62
2023/08/06 02:14:24;;;;;;;7.90;7.30;;;;;;;22.87;98.88;99809.23;84134;283;24158;-61
2023/08/06 02:16:26;;;;;;;9.20;7.70;;;;;;;22.84;99.09;99805.02;83994;283;136447;-59
2023/08/06 02:18:28;;;;;;;7.00;6.60;;;;;;;22.81;99.32;99806.39;84286;270;22544;-76
2023/08/06 02:20:30;;;;;;;8.10;7.20;;;;;;;22.81;99.61;99804.01;84246;282;137039;-61
2023/08/06 02:22:32;;;;;;;7.30;6.70;;;;;;;22.80;99.46;99809.83;84248;282;22572;-63
2023/08/06 02:24:33;;;;;;;7.10;6.70;;;;;;;22.83;99.38;99811.42;84173;282;137020;-64
2023/08/06 02:26:35;;;;;;;7.60;7.00;;;;;;;22.83;99.22;99813.27;84312;282;23256;-61
2023/08/06 02:28:37;;;;;;;8.00;7.30;;;;;;;22.83;99.20;99813.70;84127;282;136791;-62
2023/08/06 02:30:39;;;;;;;8.00;7.50;;;;;;;22.82;99.35;99813.02;84235;282;22583;-62
2023/08/06 02:32:41;;;;;;;7.60;6.90;;;;;;;22.83;99.20;99811.05;84166;282;136895;-62
2023/08/06 02:34:43;;;;;;;8.00;7.30;;;;;;;22.81;99.39;99814.65;84318;282;24105;-65
2023/08/06 02:36:45;;;;;;;6.90;6.50;;;;;;;22.79;99.63;99814.83;84244;282;137079;-72
2023/08/06 02:38:47;;;;;;;7.40;6.80;;;;;;;22.77;99.59;99816.41;84371;282;22560;-62
2023/08/06 02:40:48;;;;;;;9.90;7.70;;;;;;;22.83;99.35;99816.65;84131;283;136497;-59
2023/08/06 02:42:50;;;;;;;7.70;7.20;;;;;;;22.85;98.99;99815.48;84313;281;22572;-63
2023/08/06 02:44:54;;;;;;;7.00;6.30;;;;;;;22.84;99.00;99813.92;84261;281;137576;-63
2023/08/06 02:46:56;;;;;;;7.50;6.90;;;;;;;22.79;99.43;99817.72;84375;284;22661;-63
2023/08/06 02:48:58;;;;;;;7.20;6.80;;;;;;;22.82;99.22;99816.98;84108;283;136757;-63
2023/08/06 02:51:01;;;;;;;7.70;7.20;;;;;;;22.82;99.53;99820.80;84326;282;22614;-62
2023/08/06 02:53:04;;;;;;;8.90;8.30;;;;;;;22.81;99.57;99819.86;84213;282;137902;-63
2023/08/06 02:55:07;;;;;;;7.40;7.00;;;;;;;22.80;99.29;99819.92;84297;283;22570;-65
2023/08/06 02:57:10;;;;;;;7.40;6.50;;;;;;;22.78;99.41;99819.62;84156;283;137213;-63
2023/08/06 02:59:13;;;;;;;7.70;7.10;;;;;;;22.84;98.97;99823.11;84451;282;22600;-61
2023/08/06 03:01:39;;;;;;;7.80;6.50;;;;;;;22.91;98.70;99823.33;84083;281;136989;-63
2023/08/06 03:03:47;;;;;;;7.90;7.40;;;;;;;23.00;98.34;99821.03;84144;284;22649;-65
2023/08/06 03:05:55;;;;;;;7.70;7.00;;;;;;;23.18;96.80;99818.52;84311;281;136789;-61
2023/08/06 03:08:05;;;;;;;10.10;7.30;;;;;;;23.29;95.79;99815.02;84194;282;137356;-64
2023/08/06 03:10:08;;;;;;;7.90;7.10;;;;;;;23.43;94.99;99813.52;84286;283;22551;-76
2023/08/06 03:12:10;;;;;;;8.10;7.40;;;;;;;23.56;94.03;99816.01;84188;282;137149;-63
2023/08/06 03:14:14;;;;;;;7.00;6.60;;;;;;;23.72;92.62;99813.08;84364;282;22690;-62
2023/08/06 03:16:17;;;;;;;6.80;6.10;;;;;;;23.94;91.06;99810.61;84338;282;138288;-63
2023/08/06 03:18:23;;;;;;;7.10;6.70;;;;;;;24.19;89.53;99807.27;84325;283;22562;-61
2023/08/06 03:20:25;;;;;;;6.70;6.10;;;;;;;24.37;87.50;99808.77;84209;282;136874;-64
2023/08/06 03:22:27;;;;;;;6.60;6.20;;;;;;;24.54;86.65;99804.63;84171;282;22575;-62
2023/08/06 03:24:28;;;;;;;6.70;6.30;;;;;;;24.76;85.29;99800.02;84153;281;136519;-64
2023/08/06 03:26:30;;;;;;;6.70;6.20;;;;;;;25.00;83.33;99801.38;84309;282;22548;-64
2023/08/06 03:28:32;;;;;;;7.30;6.70;;;;;;;25.21;81.94;99802.56;84156;283;136129;-64
2023/08/06 03:30:35;;;;;;;6.70;6.20;;;;;;;25.42;80.01;99800.30;84159;283;25184;-62
2023/08/06 03:32:37;;;;;;;6.60;6.10;;;;;;;25.60;78.42;99800.15;84209;282;136204;-63
2023/08/06 03:34:39;;;;;;;6.60;6.10;;;;;;;25.69;78.26;99796.98;84304;284;22775;-65
2023/08/06 03:36:41;;;;;;;7.10;6.50;;;;;;;25.81;77.45;99799.41;84086;282;136235;-63
2023/08/06 03:38:43;;;;;;;6.80;6.30;;;;;;;26.01;77.35;99800.70;84175;281;25218;-66
2023/08/06 03:40:47;;;;;;;6.20;5.80;;;;;;;26.27;75.83;99795.05;84299;282;136322;-64
2023/08/06 03:42:49;;;;;;;6.70;6.30;;;;;;;26.58;74.65;99801.11;84208;281;24115;-63
2023/08/06 03:44:52;;;;;;;6.60;5.90;;;;;;;26.92;72.95;99795.17;84201;282;136228;-64
2023/08/06 03:46:54;;;;;;;7.10;6.40;;;;;;;27.22;71.09;99799.09;84159;282;22700;-65
2023/08/06 03:48:56;;;;;;;5.50;5.20;;;;;;;27.47;69.19;99795.50;84065;283;135983;-62
2023/08/06 03:51:01;;;;;;;6.00;5.60;;;;;;;27.71;67.79;99794.42;84369;282;23740;-63
2023/08/06 03:53:03;;;;;;;6.60;5.40;;;;;;;27.98;66.40;99790.02;84100;282;136097;-63
2023/08/06 03:55:05;;;;;;;6.40;6.00;;;;;;;28.15;65.09;99789.25;84362;282;22743;-66
2023/08/06 03:57:07;;;;;;;6.00;5.60;;;;;;;28.17;64.10;99789.73;84219;281;136429;-67
2023/08/06 03:59:10;;;;;;;6.50;5.20;;;;;;;28.16;64.70;99786.48;84395;281;22809;-62
2023/08/06 04:01:12;;;;;;;6.00;5.50;;;;;;;28.33;64.03;99778.90;84216;281;137425;-68
2023/08/06 04:03:17;;;;;;;5.50;5.10;;;;;;;28.59;63.30;99780.64;84102;282;24132;-63
2023/08/06 04:05:19;;;;;;;5.90;5.40;;;;;;;28.89;61.88;99777.39;84121;282;136061;-65
2023/08/06 04:07:21;;;;;;;5.20;4.80;;;;;;;29.20;60.63;99774.02;84339;281;24276;-64
2023/08/06 04:09:23;;;;;;;6.20;5.60;;;;;;;29.47;59.55;99771.66;84050;283;136335;-65
2023/08/06 04:11:24;;;;;;;4.90;4.70;;;;;;;29.68;58.74;99774.65;84233;281;25197;-67
2023/08/06 04:13:26;;;;;;;5.10;4.80;;;;;;;29.88;57.19;99775.52;84098;283;136183;-66
2023/08/06 04:15:28;;;;;;;5.30;4.90;;;;;;;30.03;56.65;99775.36;84163;283;22548;-65
2023/08/06 04:17:31;;;;;;;5.50;5.20;;;;;;;30.14;56.31;99770.52;84200;282;136385;-65
2023/08/06 04:19:33;;;;;;;5.40;4.40;;;;;;;30.30;56.01;99769.23;84207;281;22761;-66
2023/08/06 04:21:36;;;;;;;5.20;4.90;;;;;;;30.56;55.34;99765.98;84005;282;136397;-68
2023/08/06 04:23:38;;;;;;;5.10;4.80;;;;;;;30.85;54.07;99766.66;84102;283;22562;-65
2023/08/06 04:25:41;;;;;;;5.00;4.70;;;;;;;30.95;52.68;99763.95;84128;281;137286;-67
2023/08/06 04:27:43;;;;;;;5.90;5.50;;;;;;;30.88;52.57;99763.84;84356;281;22717;-65
2023/08/06 04:29:45;;;;;;;5.10;4.60;;;;;;;30.85;53.13;99760.27;84188;281;136163;-66
2023/08/06 04:31:47;;;;;;;5.00;4.20;;;;;;;30.97;52.94;99756.64;84286;281;22718;-65
2023/08/06 04:33:49;;;;;;;5.20;4.80;;;;;;;31.09;52.16;99748.56;84026;283;137055;-69
2023/08/06 04:35:55;;;;;;;5.20;4.90;;;;;;;31.06;51.95;99751.44;84090;282;22557;-67
2023/08/06 04:37:58;;;;;;;4.80;4.50;;;;;;;31.02;52.42;99750.35;84556;281;135695;-68
2023/08/06 04:40:00;;;;;;;4.80;4.40;;;;;;;31.11;52.24;99751.86;84195;282;22655;-67
2023/08/06 04:42:02;;;;;;;5.40;4.90;;;;;;;31.35;51.20;99747.48;84210;281;135906;-65
2023/08/06 04:44:04;;;;;;;5.30;5.00;;;;;;;31.60;50.37;99747.97;84246;281;136464;-64
2023/08/06 04:46:06;;;;;;;4.80;4.30;;;;;;;31.76;49.66;99743.23;84231;274;23736;-66
2023/08/06 04:48:08;;;;;;;4.10;3.90;;;;;;;31.89;49.30;99740.23;84147;275;136517;-66
2023/08/06 04:50:09;;;;;;;4.80;4.60;;;;;;;32.02;48.81;99735.36;84296;282;22597;-68
2023/08/06 04:52:11;;;;;;;4.30;4.10;;;;;;;32.20;48.40;99735.75;84269;281;136241;-64
2023/08/06 04:54:13;;;;;;;5.50;5.00;;;;;;;32.29;47.30;99732.63;84221;281;22798;-67
2023/08/06 04:56:15;;;;;;;5.00;4.30;;;;;;;32.20;47.76;99735.27;84245;281;136450;-66
2023/08/06 04:58:17;;;;;;;5.20;4.80;;;;;;;32.22;48.00;99726.61;84361;282;25132;-66
2023/08/06 05:00:19;;;;;;;5.00;4.60;;;;;;;32.37;47.59;99726.64;84331;275;136256;-68
2023/08/06 05:02:20;;;;;;;5.50;5.00;;;;;;;32.31;46.81;99720.42;84330;281;24097;-67
2023/08/06 05:04:22;;;;;;;4.80;4.50;;;;;;;32.28;47.44;99712.69;84174;282;136203;-66
2023/08/06 05:06:26;;;;;;;;;;;;;;;32.31;47.57;99715.21;84242;282;25613;-67
2023/08/06 05:08:28;;;;;;;5.00;4.60;;;;;;;32.52;47.08;99711.38;84272;281;123109;-65
2023/08/06 05:10:29;;;;;;;8.60;5.40;;;;;;;32.72;46.39;99713.54;84252;282;22580;-65
2023/08/06 05:12:31;;;;;;;5.00;4.70;;;;;;;32.93;45.44;99707.62;84122;282;137376;-66
2023/08/06 05:14:33;;;;;;;4.90;4.60;;;;;;;32.99;45.38;99702.02;84226;281;25294;-65
2023/08/06 05:16:34;;;;;;;5.20;4.80;;;;;;;32.88;45.64;99702.14;84109;281;136964;-66
2023/08/06 05:18:37;;;;;;;5.00;4.70;;;;;;;32.92;45.85;99701.20;84211;281;22824;-68
2023/08/06 05:20:41;;;;;;;4.70;4.50;;;;;;;33.14;45.68;99698.38;84243;281;136397;-71
2023/08/06 05:22:44;;;;;;;4.90;4.60;;;;;;;33.24;45.27;99702.13;84375;282;22554;-64
2023/08/06 05:24:46;;;;;;;4.20;3.80;;;;;;;33.26;45.14;99697.11;84083;281;136140;-66
2023/08/06 05:26:47;;;;;;;5.30;4.50;;;;;;;33.32;44.76;99694.20;84114;283;24072;-68
2023/08/06 05:28:49;;;;;;;5.00;4.60;;;;;;;33.40;44.18;99691.70;84176;281;136066;-65
2023/08/06 05:30:51;;;;;;;4.70;4.30;;;;;;;33.35;44.57;99689.30;84242;281;24137;-64
2023/08/06 05:32:53;;;;;;;4.80;4.30;;;;;;;33.46;45.25;99689.21;84110;281;137621;-68
2023/08/06 05:34:55;;;;;;;5.90;5.30;;;;;;;33.62;44.49;99683.13;84322;281;22545;-72
2023/08/06 05:36:57;;;;;;;5.50;5.00;;;;;;;33.64;44.50;99684.23;84281;281;137606;-68
2023/08/06 05:39:00;;;;;;;4.70;4.50;;;;;;;33.65;44.65;99682.69;84347;281;22590;-68
2023/08/06 05:41:01;;;;;;;4.40;4.20;;;;;;;33.74;44.56;99679.32;84264;281;136237;-68
2023/08/06 05:43:03;;;;;;;5.40;4.60;;;;;;;33.86;44.06;99680.29;84417;281;25249;-67
2023/08/06 05:45:05;;;;;;;4.70;4.50;;;;;;;33.86;43.69;99674.55;84273;281;136830;-66
2023/08/06 05:47:07;;;;;;;4.40;4.10;;;;;;;33.82;43.50;99671.98;84351;282;25133;-69
2023/08/06 05:49:09;;;;;;;3.80;3.60;;;;;;;33.85;43.35;99669.14;84081;282;136180;-69
2023/08/06 05:51:13;;;;;;;4.70;4.30;;;;;;;33.87;43.65;99667.98;84374;282;25312;-67
2023/08/06 05:53:14;;;;;;;5.40;4.10;;;;;;;33.92;43.64;99660.74;84150;281;136187;-69
2023/08/06 05:55:16;;;;;;;4.70;4.40;;;;;;;34.01;42.95;99664.11;84192;270;24888;-69
2023/08/06 05:57:18;;;;;;;4.40;4.10;;;;;;;34.11;42.43;99660.83;84167;281;140290;-69
2023/08/06 05:59:19;;;;;;;3.60;3.50;;;;;;;34.11;41.81;99649.30;84334;282;25317;-68
2023/08/06 06:01:21;;;;;;;4.60;4.40;;;;;;;34.08;42.09;99651.38;84150;281;135838;-71
2023/08/06 06:03:23;;;;;;;4.30;4.10;;;;;;;34.16;42.13;99646.33;84294;281;24137;-69
2023/08/06 06:05:25;;;;;;;4.10;3.90;;;;;;;34.35;41.55;99642.22;84138;281;137585;-69
2023/08/06 06:07:27;;;;;;;4.30;3.90;;;;;;;34.51;40.41;99642.51;84242;282;23830;-65
2023/08/06 06:09:30;;;;;;;3.40;3.10;;;;;;;34.62;39.90;99648.09;82840;282;1795623;-67
2023/08/06 06:11:32;;;;;;;4.30;3.90;;;;;;;34.64;39.26;99635.47;84270;282;22573;-66
2023/08/06 06:13:33;;;;;;;3.60;3.50;;;;;;;34.59;39.37;99649.29;84101;282;136387;-66
2023/08/06 06:15:35;;;;;;;4.50;4.20;;;;;;;34.51;39.47;99626.61;84114;282;24100;-66
2023/08/06 06:17:39;;;;;;;3.70;3.40;;;;;;;34.54;39.58;99631.80;84092;281;136436;-67
2023/08/06 06:19:41;;;;;;;4.20;3.90;;;;;;;34.50;39.35;99640.84;84220;281;22544;-69
2023/08/06 06:21:43;;;;;;;3.60;3.40;;;;;;;34.39;39.81;99629.31;84185;281;136252;-66
2023/08/06 06:23:45;;;;;;;3.50;3.10;;;;;;;34.34;40.07;99627.02;84222;282;22545;-67
2023/08/06 06:25:49;;;;;;;3.90;3.60;;;;;;;34.30;40.68;99619.04;84262;281;136216;-65
2023/08/06 06:27:51;;;;;;;4.20;3.90;;;;;;;34.21;40.31;99632.45;84410;281;22956;-67
2023/08/06 06:29:54;;;;;;;7.10;3.30;;;;;;;34.03;40.12;99650.39;84125;282;136204;-67
2023/08/06 06:31:56;;;;;;;3.90;3.70;;;;;;;33.81;40.47;99619.92;84276;282;22503;-69
2023/08/06 06:33:58;;;;;;;3.20;3.10;;;;;;;33.66;41.18;99616.05;84178;282;135876;-65
2023/08/06 06:36:00;;;;;;;4.20;3.60;;;;;;;33.46;41.91;99620.00;84198;282;23723;-68
2023/08/06 06:38:02;;;;;;;3.70;3.50;;;;;;;33.19;42.45;99618.77;84139;282;136202;-67
2023/08/06 06:40:05;;;;;;;6.40;3.70;;;;;;;32.91;43.20;99604.74;84166;282;137417;-67
2023/08/06 06:42:07;;;;;;;3.90;3.50;;;;;;;32.84;43.65;99615.98;84410;281;22891;-67
2023/08/06 06:44:10;;;;;;;4.40;3.80;;;;;;;32.96;42.78;99604.86;84131;281;136409;-72
2023/08/06 06:46:13;;;;;;;3.90;3.60;;;;;;;33.07;42.60;99596.70;84284;282;22548;-66
2023/08/06 06:48:15;;;;;;;3.70;3.50;;;;;;;33.05;42.99;99599.79;84126;281;135524;-67
2023/08/06 06:50:16;;;;;;;4.60;3.10;;;;;;;33.03;43.02;99605.59;84193;282;22589;-66
2023/08/06 06:52:18;;;;;;;5.40;3.10;;;;;;;33.11;42.97;99582.37;84139;282;136731;-64
2023/08/06 06:54:20;;;;;;;3.70;3.40;;;;;;;33.28;42.83;99594.35;84058;282;25132;-64
2023/08/06 06:56:22;;;;;;;3.40;3.20;;;;;;;33.50;42.15;99594.30;84155;281;137871;-67
2023/08/06 06:58:24;;;;;;;3.40;3.20;;;;;;;33.64;41.73;99580.39;84060;283;22627;-68
2023/08/06 07:00:26;;;;;;;6.10;3.10;;;;;;;33.67;41.93;99581.66;84073;281;137498;-66
2023/08/06 07:02:27;;;;;;;3.50;3.40;;;;;;;33.62;42.05;99571.44;84200;282;22552;-67
2023/08/06 07:04:29;;;;;;;3.10;2.90;;;;;;;33.55;42.58;99570.34;84150;281;138318;-71
2023/08/06 07:06:32;;;;;;;3.60;3.20;;;;;;;33.59;42.33;99561.73;84312;281;22585;-68
2023/08/06 07:08:34;;;;;;;3.40;3.30;;;;;;;33.76;41.96;99558.88;84190;281;137341;-70
2023/08/06 07:10:37;;;;;;;3.20;2.90;;;;;;;33.87;41.79;99545.17;84363;282;22547;-67
2023/08/06 07:12:43;;;;;;;3.80;3.20;;;;;;;33.70;41.44;99557.09;84262;282;137829;-70
2023/08/06 07:14:46;;;;;;;3.40;3.20;;;;;;;33.47;41.96;99562.11;84308;282;24101;-70
2023/08/06 07:16:48;;;;;;;3.90;3.50;;;;;;;33.41;42.23;99559.21;84050;281;136237;-71
2023/08/06 07:18:52;;;;;;;3.00;2.90;;;;;;;33.41;42.18;99559.61;84199;282;22546;-68
2023/08/06 07:20:55;;;;;;;3.90;3.20;;;;;;;33.31;42.10;99553.48;84096;282;136175;-68
2023/08/06 07:22:58;;;;;;;3.50;3.20;;;;;;;33.27;42.32;99543.38;84305;281;24037;-68
2023/08/06 07:25:00;;;;;;;5.50;3.10;;;;;;;33.29;42.55;99552.81;84255;282;136124;-69
2023/08/06 07:27:01;;;;;;;6.00;3.70;;;;;;;33.27;42.24;99554.65;84286;278;22743;-68
2023/08/06 07:29:03;;;;;;;3.80;3.60;;;;;;;33.04;42.69;99548.97;84176;281;136301;-68
2023/08/06 07:31:05;;;;;;;4.40;2.80;;;;;;;32.75;42.93;99544.20;84211;281;25215;-64
2023/08/06 07:33:10;;;;;;;3.00;2.80;;;;;;;32.52;43.83;99535.26;84142;281;136251;-70
2023/08/06 07:35:14;;;;;;;3.50;3.30;;;;;;;32.36;44.30;99545.00;84303;281;22568;-64
2023/08/06 07:37:16;;;;;;;;;;;;;;;32.09;44.90;99529.95;84186;281;136246;-65
2023/08/06 07:39:18;;;;;;;4.40;3.50;;;;;;;31.89;45.27;99523.10;84316;282;22544;-67
2023/08/06 07:41:20;;;;;;;5.60;4.40;;;;;;;31.78;45.87;99521.94;84208;282;136343;-69
2023/08/06 07:43:21;;;;;;;4.10;3.80;;;;;;;31.78;45.93;99542.40;84180;281;22649;-66
2023/08/06 07:45:24;;;;;;;4.40;3.40;;;;;;;31.73;45.95;99542.18;84129;271;136638;-68
2023/08/06 07:47:25;;;;;;;3.70;3.50;;;;;;;31.68;45.75;99548.02;86016;282;22547;-68
2023/08/06 07:49:27;;;;;;;3.60;3.30;;;;;;;31.62;45.64;99541.78;84111;282;136213;-67
2023/08/06 07:51:31;;;;;;;4.50;3.50;;;;;;;31.54;45.76;99536.45;84352;281;24172;-73
2023/08/06 07:53:33;;;;;;;6.70;3.30;;;;;;;31.46;46.00;99533.67;84214;282;136119;-66
2023/08/06 07:55:35;;;;;;;6.30;3.40;;;;;;;31.35;46.17;99537.58;84263;281;26265;-69
2023/08/06 07:57:38;;;;;;;4.80;4.10;;;;;;;31.26;46.45;99517.58;84083;281;137710;-67
2023/08/06 07:59:39;;;;;;;3.70;3.50;;;;;;;31.23;46.72;99504.36;84318;282;22554;-66
2023/08/06 08:01:41;;;;;;;4.10;3.80;;;;;;;31.25;47.02;99500.88;84201;281;136327;-71
2023/08/06 08:03:43;;;;;;;5.00;3.20;;;;;;;31.23;46.98;99512.70;84281;281;25200;-66
2023/08/06 08:05:46;;;;;;;4.50;4.10;;;;;;;31.21;47.03;99500.07;83983;282;137957;-66
2023/08/06 08:07:47;;;;;;;5.60;3.60;;;;;;;31.25;47.33;99493.88;84182;281;22633;-69
2023/08/06 08:09:49;;;;;;;4.80;4.30;;;;;;;31.34;47.44;99498.13;84029;281;135094;-64
2023/08/06 08:11:52;;;;;;;3.90;3.30;;;;;;;31.40;47.47;99487.79;84378;281;22541;-69
2023/08/06 08:13:54;;;;;;;3.90;3.70;;;;;;;31.42;47.53;99496.59;84122;282;136946;-69
2023/08/06 08:15:58;;;;;;;3.90;3.70;;;;;;;31.44;47.12;99525.35;84178;281;24555;-68
2023/08/06 08:18:00;;;;;;;4.20;3.60;;;;;;;31.41;46.38;99502.83;84211;282;136067;-69
2023/08/06 08:20:02;;;;;;;4.80;3.70;;;;;;;31.44;47.11;99482.14;84343;281;25129;-65
2023/08/06 08:22:04;;;;;;;5.00;4.60;;;;;;;31.42;47.70;99491.77;84348;281;22540;-65
2023/08/06 08:24:06;;;;;;;5.00;4.50;;;;;;;31.47;47.90;99486.77;84197;281;136233;-65
2023/08/06 08:26:08;;;;;;;8.10;7.30;;;;;;;31.51;47.90;99492.75;84382;281;25246;-66
2023/08/06 08:28:10;;;;;;;9.80;5.60;;;;;;;31.54;47.89;99465.48;84154;282;137679;-67
2023/08/06 08:30:12;;;;;;;4.70;4.30;;;;;;;31.57;47.57;99481.85;84325;282;25192;-67
2023/08/06 08:32:15;;;;;;;6.90;3.20;;;;;;;31.63;46.62;99485.45;84214;281;136519;-68
2023/08/06 08:34:17;;;;;;;4.40;3.50;;;;;;;31.64;46.35;99487.83;84251;283;24239;-69
2023/08/06 08:36:20;;;;;;;3.40;3.00;;;;;;;31.62;46.64;99480.09;84184;281;136306;-68
2023/08/06 08:38:22;;;;;;;4.00;2.90;;;;;;;31.61;46.98;99461.50;84242;281;24117;-65
2023/08/06 08:40:31;;;;;;;3.40;3.10;;;;;;;31.62;47.29;99465.45;84189;282;136216;-68
2023/08/06 08:42:35;;;;;;;3.60;3.30;;;;;;;31.67;48.02;99456.39;84319;282;24075;-69
2023/08/06 08:44:39;;;;;;;6.70;3.90;;;;;;;31.71;48.49;99457.18;84351;283;136212;-64
2023/08/06 08:46:42;;;;;;;3.60;3.20;;;;;;;31.81;47.87;99472.49;84146;281;22548;-67
2023/08/06 08:48:44;;;;;;;4.00;3.80;;;;;;;31.89;47.75;99463.35;84317;282;136056;-68
2023/08/06 08:50:48;;;;;;;4.00;3.40;;;;;;;31.92;47.85;99467.98;84201;281;25132;-68
2023/08/06 08:52:50;;;;;;;;;;;;;;;31.95;47.25;99471.70;84201;281;136269;-65
2023/08/06 08:54:55;;;;;;;3.70;3.50;;;;;;;31.93;47.67;99471.72;84203;282;22559;-65
2023/08/06 08:56:56;;;;;;;7.00;4.20;;;;;;;31.88;47.83;99462.28;84138;283;136054;-67
2023/08/06 08:58:59;;;;;;;3.90;3.70;;;;;;;31.88;48.24;99461.34;84237;280;24336;-68
2023/08/06 09:01:02;;;;;;;4.70;4.20;;;;;;;31.92;48.03;99454.91;84154;280;135988;-69
2023/08/06 09:03:06;;;;;;;4.20;2.80;;;;;;;31.92;47.92;99477.27;84110;281;23022;-71
2023/08/06 09:05:10;;;;;;;5.10;3.90;;;;;;;31.93;47.45;99450.67;84313;281;136384;-68
2023/08/06 09:07:17;;;;;;;5.90;3.50;;;;;;;31.92;47.71;99451.45;84413;281;26279;-67
2023/08/06 09:09:28;;;;;;;9.20;4.00;;;;;;;31.90;47.81;99451.63;84437;281;138187;-67
2023/08/06 09:11:39;;;;;;;6.30;2.90;;;;;;;31.89;48.06;99432.25;84335;281;25781;-71
2023/08/06 09:13:41;;;;;;;4.00;3.30;;;;;;;31.94;48.47;99434.28;84336;281;137909;-67
2023/08/06 09:15:44;;;;;;;4.10;3.80;;;;;;;31.97;48.73;99445.21;84509;281;22550;-68
2023/08/06 09:17:46;;;;;;;4.20;3.60;;;;;;;31.99;48.64;99437.88;84220;282;137377;-68
2023/08/06 09:19:48;;;;;;;5.30;3.60;;;;;;;32.02;48.49;99440.16;84209;282;22594;-65
2023/08/06 09:21:51;;;;;;;6.10;4.20;;;;;;;32.01;47.67;99452.31;84227;282;137591;-65
2023/08/06 09:23:54;;;;;;;4.00;3.10;;;;;;;32.01;47.56;99432.11;84399;281;22641;-67
2023/08/06 09:25:56;;;;;;;5.70;3.70;;;;;;;31.99;47.95;99432.69;84201;281;136230;-65
2023/08/06 09:27:58;;;;;;;3.60;3.20;;;;;;;31.99;46.96;99421.87;84312;282;25213;-64
2023/08/06 09:30:01;;;;;;;4.30;3.60;;;;;;;32.01;47.34;99425.56;84175;281;136102;-69
2023/08/06 09:32:04;;;;;;;4.10;3.80;;;;;;;32.04;47.43;99426.89;84291;282;22550;-66
2023/08/06 09:34:12;;;;;;;11.00;4.40;;;;;;;32.07;47.35;99420.13;84269;282;22547;-72
2023/08/06 09:36:14;;;;;;;4.80;3.30;;;;;;;32.10;47.35;99408.23;84152;281;135657;-68
2023/08/06 09:38:16;;;;;;;4.30;3.50;;;;;;;32.14;46.94;99417.80;84250;281;22640;-68
2023/08/06 09:40:31;;;;;;;7.10;3.40;;;;;;;32.20;46.62;99425.80;84019;282;136472;-71